sensor_id;sensor_type;location;lat;lon;timestamp;P1;durP1;ratioP1;P2;durP2;ratioP2
68192;SDS011;55012;47.562;18.414;2024-01-30T00:01:18;75.90;;;27.35;;
68192;SDS011;55012;47.562;18.414;2024-01-30T00:03:43;79.57;;;28.73;;
68192;SDS011;55012;47.562;18.414;2024-01-30T00:06:09;67.05;;;26.52;;
68192;SDS011;55012;47.562;18.414;2024-01-30T00:08:34;72.40;;;27.92;;
68192;SDS011;55012;47.562;18.414;2024-01-30T00:10:59;68.05;;;26.63;;
68192;SDS011;55012;47.562;18.414;2024-01-30T00:13:25;69.85;;;27.15;;
68192;SDS011;55012;47.562;18.414;2024-01-30T00:15:51;63.15;;;25.10;;
68192;SDS011;55012;47.562;18.414;2024-01-30T00:18:16;59.38;;;24.55;;
68192;SDS011;55012;47.562;18.414;2024-01-30T00:20:42;61.08;;;23.60;;
68192;SDS011;55012;47.562;18.414;2024-01-30T00:23:08;52.35;;;23.35;;
68192;SDS011;55012;47.562;18.414;2024-01-30T00:25:33;54.05;;;22.40;;
68192;SDS011;55012;47.562;18.414;2024-01-30T00:27:59;54.47;;;22.95;;
68192;SDS011;55012;47.562;18.414;2024-01-30T00:30:24;52.08;;;22.25;;
68192;SDS011;55012;47.562;18.414;2024-01-30T00:32:49;53.03;;;21.23;;
68192;SDS011;55012;47.562;18.414;2024-01-30T00:35:15;54.95;;;22.20;;
68192;SDS011;55012;47.562;18.414;2024-01-30T00:37:40;52.95;;;22.02;;
68192;SDS011;55012;47.562;18.414;2024-01-30T00:40:06;57.45;;;22.45;;
68192;SDS011;55012;47.562;18.414;2024-01-30T00:42:31;55.05;;;22.60;;
68192;SDS011;55012;47.562;18.414;2024-01-30T00:44:57;56.08;;;23.50;;
68192;SDS011;55012;47.562;18.414;2024-01-30T00:47:22;56.72;;;23.58;;
68192;SDS011;55012;47.562;18.414;2024-01-30T00:49:48;60.28;;;24.58;;
68192;SDS011;55012;47.562;18.414;2024-01-30T00:52:13;56.53;;;24.80;;
68192;SDS011;55012;47.562;18.414;2024-01-30T00:54:38;62.50;;;25.35;;
68192;SDS011;55012;47.562;18.414;2024-01-30T00:57:04;60.75;;;24.95;;
68192;SDS011;55012;47.562;18.414;2024-01-30T00:59:29;58.53;;;24.90;;
68192;SDS011;55012;47.562;18.414;2024-01-30T01:01:55;59.13;;;24.77;;
68192;SDS011;55012;47.562;18.414;2024-01-30T01:04:20;63.83;;;23.38;;
68192;SDS011;55012;47.562;18.414;2024-01-30T01:06:46;61.15;;;24.58;;
68192;SDS011;55012;47.562;18.414;2024-01-30T01:09:12;57.50;;;24.80;;
68192;SDS011;55012;47.562;18.414;2024-01-30T01:11:37;67.03;;;25.50;;
68192;SDS011;55012;47.562;18.414;2024-01-30T01:14:03;61.85;;;25.45;;
68192;SDS011;55012;47.562;18.414;2024-01-30T01:16:29;69.40;;;27.25;;
68192;SDS011;55012;47.562;18.414;2024-01-30T01:18:55;69.47;;;27.50;;
68192;SDS011;55012;47.562;18.414;2024-01-30T01:21:20;62.55;;;25.33;;
68192;SDS011;55012;47.562;18.414;2024-01-30T01:23:45;65.43;;;24.92;;
68192;SDS011;55012;47.562;18.414;2024-01-30T01:26:11;59.08;;;24.80;;
68192;SDS011;55012;47.562;18.414;2024-01-30T01:28:36;61.92;;;24.38;;
68192;SDS011;55012;47.562;18.414;2024-01-30T01:31:01;60.83;;;24.58;;
68192;SDS011;55012;47.562;18.414;2024-01-30T01:33:33;62.63;;;24.88;;
68192;SDS011;55012;47.562;18.414;2024-01-30T01:35:59;62.35;;;25.95;;
68192;SDS011;55012;47.562;18.414;2024-01-30T01:38:25;62.17;;;25.77;;
68192;SDS011;55012;47.562;18.414;2024-01-30T01:40:50;63.17;;;26.10;;
68192;SDS011;55012;47.562;18.414;2024-01-30T01:43:16;65.28;;;25.90;;
68192;SDS011;55012;47.562;18.414;2024-01-30T01:45:41;68.82;;;27.67;;
68192;SDS011;55012;47.562;18.414;2024-01-30T01:48:07;69.03;;;26.95;;
68192;SDS011;55012;47.562;18.414;2024-01-30T01:50:33;70.22;;;26.65;;
68192;SDS011;55012;47.562;18.414;2024-01-30T01:52:59;73.68;;;27.75;;
68192;SDS011;55012;47.562;18.414;2024-01-30T01:55:24;72.75;;;29.02;;
68192;SDS011;55012;47.562;18.414;2024-01-30T01:57:52;70.28;;;26.58;;
68192;SDS011;55012;47.562;18.414;2024-01-30T02:00:18;67.68;;;25.58;;
68192;SDS011;55012;47.562;18.414;2024-01-30T02:02:45;67.70;;;27.15;;
68192;SDS011;55012;47.562;18.414;2024-01-30T02:05:11;72.72;;;28.80;;
68192;SDS011;55012;47.562;18.414;2024-01-30T02:07:37;68.30;;;27.20;;
68192;SDS011;55012;47.562;18.414;2024-01-30T02:10:02;69.20;;;28.42;;
68192;SDS011;55012;47.562;18.414;2024-01-30T02:12:28;72.32;;;28.95;;
68192;SDS011;55012;47.562;18.414;2024-01-30T02:14:54;59.80;;;24.52;;
68192;SDS011;55012;47.562;18.414;2024-01-30T02:17:20;51.55;;;21.77;;
68192;SDS011;55012;47.562;18.414;2024-01-30T02:19:45;51.75;;;22.23;;
68192;SDS011;55012;47.562;18.414;2024-01-30T02:22:11;49.08;;;20.73;;
68192;SDS011;55012;47.562;18.414;2024-01-30T02:24:37;49.40;;;20.70;;
68192;SDS011;55012;47.562;18.414;2024-01-30T02:27:02;47.45;;;20.50;;
68192;SDS011;55012;47.562;18.414;2024-01-30T02:29:27;51.45;;;21.08;;
68192;SDS011;55012;47.562;18.414;2024-01-30T02:31:53;48.58;;;19.75;;
68192;SDS011;55012;47.562;18.414;2024-01-30T02:34:18;44.63;;;18.77;;
68192;SDS011;55012;47.562;18.414;2024-01-30T02:36:44;50.33;;;20.90;;
68192;SDS011;55012;47.562;18.414;2024-01-30T02:39:10;48.72;;;19.98;;
68192;SDS011;55012;47.562;18.414;2024-01-30T02:41:36;48.78;;;20.55;;
68192;SDS011;55012;47.562;18.414;2024-01-30T02:44:02;48.90;;;20.52;;
68192;SDS011;55012;47.562;18.414;2024-01-30T02:46:28;52.10;;;21.15;;
68192;SDS011;55012;47.562;18.414;2024-01-30T02:48:54;55.38;;;21.98;;
68192;SDS011;55012;47.562;18.414;2024-01-30T02:51:19;49.63;;;20.92;;
68192;SDS011;55012;47.562;18.414;2024-01-30T02:53:44;52.17;;;22.00;;
68192;SDS011;55012;47.562;18.414;2024-01-30T02:56:10;48.83;;;20.77;;
68192;SDS011;55012;47.562;18.414;2024-01-30T02:58:35;47.92;;;20.80;;
68192;SDS011;55012;47.562;18.414;2024-01-30T03:01:01;59.72;;;24.35;;
68192;SDS011;55012;47.562;18.414;2024-01-30T03:03:27;55.53;;;23.95;;
68192;SDS011;55012;47.562;18.414;2024-01-30T03:05:53;64.63;;;26.73;;
68192;SDS011;55012;47.562;18.414;2024-01-30T03:08:18;68.60;;;27.10;;
68192;SDS011;55012;47.562;18.414;2024-01-30T03:10:43;77.15;;;30.95;;
68192;SDS011;55012;47.562;18.414;2024-01-30T03:13:09;77.25;;;31.45;;
68192;SDS011;55012;47.562;18.414;2024-01-30T03:15:34;77.90;;;32.55;;
68192;SDS011;55012;47.562;18.414;2024-01-30T03:17:59;82.15;;;33.55;;
68192;SDS011;55012;47.562;18.414;2024-01-30T03:20:25;74.22;;;30.98;;
68192;SDS011;55012;47.562;18.414;2024-01-30T03:22:50;66.95;;;28.63;;
68192;SDS011;55012;47.562;18.414;2024-01-30T03:25:15;64.00;;;26.95;;
68192;SDS011;55012;47.562;18.414;2024-01-30T03:27:41;58.10;;;24.55;;
68192;SDS011;55012;47.562;18.414;2024-01-30T03:30:06;57.95;;;23.95;;
68192;SDS011;55012;47.562;18.414;2024-01-30T03:32:32;58.90;;;24.25;;
68192;SDS011;55012;47.562;18.414;2024-01-30T03:34:57;61.17;;;25.38;;
68192;SDS011;55012;47.562;18.414;2024-01-30T03:37:23;55.92;;;24.85;;
68192;SDS011;55012;47.562;18.414;2024-01-30T03:39:48;60.47;;;24.23;;
68192;SDS011;55012;47.562;18.414;2024-01-30T03:42:14;62.22;;;25.67;;
68192;SDS011;55012;47.562;18.414;2024-01-30T03:44:39;62.15;;;26.63;;
68192;SDS011;55012;47.562;18.414;2024-01-30T03:47:05;67.28;;;27.80;;
68192;SDS011;55012;47.562;18.414;2024-01-30T03:49:30;66.65;;;27.45;;
68192;SDS011;55012;47.562;18.414;2024-01-30T03:51:55;66.50;;;26.60;;
68192;SDS011;55012;47.562;18.414;2024-01-30T03:54:21;63.45;;;27.27;;
68192;SDS011;55012;47.562;18.414;2024-01-30T03:56:46;67.65;;;28.02;;
68192;SDS011;55012;47.562;18.414;2024-01-30T03:59:11;60.67;;;25.95;;
68192;SDS011;55012;47.562;18.414;2024-01-30T04:01:37;54.85;;;24.35;;
68192;SDS011;55012;47.562;18.414;2024-01-30T04:04:02;56.63;;;22.90;;
68192;SDS011;55012;47.562;18.414;2024-01-30T04:06:28;58.90;;;24.70;;
68192;SDS011;55012;47.562;18.414;2024-01-30T04:08:53;59.35;;;24.85;;
68192;SDS011;55012;47.562;18.414;2024-01-30T04:11:18;62.22;;;25.70;;
68192;SDS011;55012;47.562;18.414;2024-01-30T04:13:45;56.70;;;25.27;;
68192;SDS011;55012;47.562;18.414;2024-01-30T04:16:19;58.22;;;24.55;;
68192;SDS011;55012;47.562;18.414;2024-01-30T04:18:47;63.92;;;26.17;;
68192;SDS011;55012;47.562;18.414;2024-01-30T04:21:13;60.10;;;25.20;;
68192;SDS011;55012;47.562;18.414;2024-01-30T04:23:39;69.40;;;28.05;;
68192;SDS011;55012;47.562;18.414;2024-01-30T04:26:05;70.07;;;28.65;;
68192;SDS011;55012;47.562;18.414;2024-01-30T04:28:31;69.85;;;28.50;;
68192;SDS011;55012;47.562;18.414;2024-01-30T04:30:56;67.88;;;29.00;;
68192;SDS011;55012;47.562;18.414;2024-01-30T04:33:22;66.53;;;28.52;;
68192;SDS011;55012;47.562;18.414;2024-01-30T04:35:47;67.38;;;28.27;;
68192;SDS011;55012;47.562;18.414;2024-01-30T04:38:12;63.53;;;27.02;;
68192;SDS011;55012;47.562;18.414;2024-01-30T04:40:39;56.38;;;25.02;;
68192;SDS011;55012;47.562;18.414;2024-01-30T04:43:04;57.90;;;24.42;;
68192;SDS011;55012;47.562;18.414;2024-01-30T04:45:30;56.97;;;24.50;;
68192;SDS011;55012;47.562;18.414;2024-01-30T04:47:55;54.88;;;23.05;;
68192;SDS011;55012;47.562;18.414;2024-01-30T04:50:20;49.95;;;21.35;;
68192;SDS011;55012;47.562;18.414;2024-01-30T04:52:46;56.05;;;22.73;;
68192;SDS011;55012;47.562;18.414;2024-01-30T04:55:11;59.97;;;24.13;;
68192;SDS011;55012;47.562;18.414;2024-01-30T04:57:36;56.80;;;23.45;;
68192;SDS011;55012;47.562;18.414;2024-01-30T05:00:02;52.05;;;22.45;;
68192;SDS011;55012;47.562;18.414;2024-01-30T05:02:28;56.78;;;23.13;;
68192;SDS011;55012;47.562;18.414;2024-01-30T05:04:53;62.90;;;24.35;;
68192;SDS011;55012;47.562;18.414;2024-01-30T05:07:19;61.65;;;26.30;;
68192;SDS011;55012;47.562;18.414;2024-01-30T05:09:44;62.42;;;27.45;;
68192;SDS011;55012;47.562;18.414;2024-01-30T05:12:10;66.00;;;29.40;;
68192;SDS011;55012;47.562;18.414;2024-01-30T05:14:35;66.63;;;29.40;;
68192;SDS011;55012;47.562;18.414;2024-01-30T05:17:00;69.18;;;29.35;;
68192;SDS011;55012;47.562;18.414;2024-01-30T05:19:28;73.35;;;31.23;;
68192;SDS011;55012;47.562;18.414;2024-01-30T05:21:53;75.38;;;31.83;;
68192;SDS011;55012;47.562;18.414;2024-01-30T05:24:19;74.13;;;31.48;;
68192;SDS011;55012;47.562;18.414;2024-01-30T05:26:44;73.90;;;30.92;;
68192;SDS011;55012;47.562;18.414;2024-01-30T05:29:09;76.45;;;31.42;;
68192;SDS011;55012;47.562;18.414;2024-01-30T05:31:35;77.10;;;30.48;;
68192;SDS011;55012;47.562;18.414;2024-01-30T05:34:00;67.63;;;27.27;;
68192;SDS011;55012;47.562;18.414;2024-01-30T05:36:26;64.18;;;26.50;;
68192;SDS011;55012;47.562;18.414;2024-01-30T05:38:51;62.03;;;25.15;;
68192;SDS011;55012;47.562;18.414;2024-01-30T05:41:17;56.75;;;23.25;;
68192;SDS011;55012;47.562;18.414;2024-01-30T05:43:42;57.28;;;22.48;;
68192;SDS011;55012;47.562;18.414;2024-01-30T05:46:07;58.95;;;22.63;;
68192;SDS011;55012;47.562;18.414;2024-01-30T05:48:33;51.15;;;22.58;;
68192;SDS011;55012;47.562;18.414;2024-01-30T05:51:00;52.92;;;22.17;;
68192;SDS011;55012;47.562;18.414;2024-01-30T05:53:25;63.03;;;24.30;;
68192;SDS011;55012;47.562;18.414;2024-01-30T05:55:51;57.42;;;23.80;;
68192;SDS011;55012;47.562;18.414;2024-01-30T05:58:16;60.72;;;25.23;;
68192;SDS011;55012;47.562;18.414;2024-01-30T06:00:42;66.47;;;24.88;;
68192;SDS011;55012;47.562;18.414;2024-01-30T06:03:07;56.17;;;24.75;;
68192;SDS011;55012;47.562;18.414;2024-01-30T06:05:32;61.97;;;24.15;;
68192;SDS011;55012;47.562;18.414;2024-01-30T06:07:58;57.55;;;24.08;;
68192;SDS011;55012;47.562;18.414;2024-01-30T06:10:23;54.63;;;22.92;;
68192;SDS011;55012;47.562;18.414;2024-01-30T06:12:48;56.30;;;22.95;;
68192;SDS011;55012;47.562;18.414;2024-01-30T06:15:14;52.97;;;21.92;;
68192;SDS011;55012;47.562;18.414;2024-01-30T06:17:39;61.00;;;22.73;;
68192;SDS011;55012;47.562;18.414;2024-01-30T06:20:05;58.85;;;23.50;;
68192;SDS011;55012;47.562;18.414;2024-01-30T06:22:32;60.25;;;24.02;;
68192;SDS011;55012;47.562;18.414;2024-01-30T06:24:57;58.72;;;23.17;;
68192;SDS011;55012;47.562;18.414;2024-01-30T06:27:23;62.40;;;24.80;;
68192;SDS011;55012;47.562;18.414;2024-01-30T06:29:48;58.97;;;24.20;;
68192;SDS011;55012;47.562;18.414;2024-01-30T06:32:13;59.60;;;23.88;;
68192;SDS011;55012;47.562;18.414;2024-01-30T06:34:40;55.60;;;23.50;;
68192;SDS011;55012;47.562;18.414;2024-01-30T06:37:06;64.00;;;24.30;;
68192;SDS011;55012;47.562;18.414;2024-01-30T06:39:31;57.67;;;23.55;;
68192;SDS011;55012;47.562;18.414;2024-01-30T06:41:56;64.15;;;24.65;;
68192;SDS011;55012;47.562;18.414;2024-01-30T06:44:23;66.80;;;27.15;;
68192;SDS011;55012;47.562;18.414;2024-01-30T06:46:48;62.42;;;25.88;;
68192;SDS011;55012;47.562;18.414;2024-01-30T06:49:14;63.55;;;24.85;;
68192;SDS011;55012;47.562;18.414;2024-01-30T06:51:39;67.93;;;25.88;;
68192;SDS011;55012;47.562;18.414;2024-01-30T06:54:04;66.38;;;25.02;;
68192;SDS011;55012;47.562;18.414;2024-01-30T06:56:30;69.35;;;25.52;;
68192;SDS011;55012;47.562;18.414;2024-01-30T06:58:55;74.78;;;26.60;;
68192;SDS011;55012;47.562;18.414;2024-01-30T07:01:20;65.35;;;25.73;;
68192;SDS011;55012;47.562;18.414;2024-01-30T07:03:53;62.83;;;24.92;;
68192;SDS011;55012;47.562;18.414;2024-01-30T07:06:18;65.03;;;25.42;;
68192;SDS011;55012;47.562;18.414;2024-01-30T07:08:45;66.70;;;25.98;;
68192;SDS011;55012;47.562;18.414;2024-01-30T07:11:10;65.45;;;24.23;;
68192;SDS011;55012;47.562;18.414;2024-01-30T07:13:37;59.53;;;23.65;;
68192;SDS011;55012;47.562;18.414;2024-01-30T07:16:02;73.90;;;24.73;;
68192;SDS011;55012;47.562;18.414;2024-01-30T07:18:28;69.85;;;25.02;;
68192;SDS011;55012;47.562;18.414;2024-01-30T07:20:53;70.15;;;26.13;;
68192;SDS011;55012;47.562;18.414;2024-01-30T07:23:19;73.03;;;28.88;;
68192;SDS011;55012;47.562;18.414;2024-01-30T07:25:44;61.67;;;25.70;;
68192;SDS011;55012;47.562;18.414;2024-01-30T07:28:10;58.90;;;24.55;;
68192;SDS011;55012;47.562;18.414;2024-01-30T07:30:36;57.22;;;23.75;;
68192;SDS011;55012;47.562;18.414;2024-01-30T07:33:01;58.88;;;23.02;;
68192;SDS011;55012;47.562;18.414;2024-01-30T07:35:27;53.42;;;21.58;;
68192;SDS011;55012;47.562;18.414;2024-01-30T07:37:52;55.83;;;21.98;;
68192;SDS011;55012;47.562;18.414;2024-01-30T07:40:18;56.25;;;22.60;;
68192;SDS011;55012;47.562;18.414;2024-01-30T07:42:43;52.05;;;20.63;;
68192;SDS011;55012;47.562;18.414;2024-01-30T07:45:09;52.75;;;21.92;;
68192;SDS011;55012;47.562;18.414;2024-01-30T07:47:34;53.30;;;22.15;;
68192;SDS011;55012;47.562;18.414;2024-01-30T07:50:00;52.17;;;22.00;;
68192;SDS011;55012;47.562;18.414;2024-01-30T07:52:25;56.97;;;22.75;;
68192;SDS011;55012;47.562;18.414;2024-01-30T07:57:35;51.90;;;21.10;;
68192;SDS011;55012;47.562;18.414;2024-01-30T08:00:00;58.30;;;23.27;;
68192;SDS011;55012;47.562;18.414;2024-01-30T08:02:28;55.40;;;22.88;;
68192;SDS011;55012;47.562;18.414;2024-01-30T08:04:53;48.85;;;21.73;;
68192;SDS011;55012;47.562;18.414;2024-01-30T08:07:18;54.00;;;21.23;;
68192;SDS011;55012;47.562;18.414;2024-01-30T08:09:44;47.72;;;21.40;;
68192;SDS011;55012;47.562;18.414;2024-01-30T08:12:10;51.65;;;22.20;;
68192;SDS011;55012;47.562;18.414;2024-01-30T08:14:35;52.80;;;21.27;;
68192;SDS011;55012;47.562;18.414;2024-01-30T08:17:00;53.38;;;21.77;;
68192;SDS011;55012;47.562;18.414;2024-01-30T08:19:26;54.58;;;21.80;;
68192;SDS011;55012;47.562;18.414;2024-01-30T08:21:51;50.92;;;20.73;;
68192;SDS011;55012;47.562;18.414;2024-01-30T08:24:16;59.30;;;24.08;;
68192;SDS011;55012;47.562;18.414;2024-01-30T08:26:42;55.25;;;23.00;;
68192;SDS011;55012;47.562;18.414;2024-01-30T08:29:07;58.03;;;23.58;;
68192;SDS011;55012;47.562;18.414;2024-01-30T08:31:32;56.47;;;22.58;;
68192;SDS011;55012;47.562;18.414;2024-01-30T08:33:58;59.30;;;23.95;;
68192;SDS011;55012;47.562;18.414;2024-01-30T08:36:23;62.70;;;25.08;;
68192;SDS011;55012;47.562;18.414;2024-01-30T08:38:49;58.10;;;23.83;;
68192;SDS011;55012;47.562;18.414;2024-01-30T08:41:14;57.92;;;23.70;;
68192;SDS011;55012;47.562;18.414;2024-01-30T08:43:39;66.63;;;24.67;;
68192;SDS011;55012;47.562;18.414;2024-01-30T08:46:05;59.00;;;24.67;;
68192;SDS011;55012;47.562;18.414;2024-01-30T08:48:30;54.70;;;23.40;;
68192;SDS011;55012;47.562;18.414;2024-01-30T08:50:55;53.55;;;23.80;;
68192;SDS011;55012;47.562;18.414;2024-01-30T08:53:21;59.20;;;22.50;;
68192;SDS011;55012;47.562;18.414;2024-01-30T08:55:47;56.28;;;21.90;;
68192;SDS011;55012;47.562;18.414;2024-01-30T08:58:12;58.33;;;22.35;;
68192;SDS011;55012;47.562;18.414;2024-01-30T09:00:37;62.15;;;24.15;;
68192;SDS011;55012;47.562;18.414;2024-01-30T09:03:03;62.00;;;24.85;;
68192;SDS011;55012;47.562;18.414;2024-01-30T09:05:28;56.80;;;24.65;;
68192;SDS011;55012;47.562;18.414;2024-01-30T09:07:54;68.18;;;27.08;;
68192;SDS011;55012;47.562;18.414;2024-01-30T09:10:19;70.78;;;28.98;;
68192;SDS011;55012;47.562;18.414;2024-01-30T09:12:45;73.07;;;28.60;;
68192;SDS011;55012;47.562;18.414;2024-01-30T09:15:11;68.15;;;27.23;;
68192;SDS011;55012;47.562;18.414;2024-01-30T09:17:36;65.53;;;27.30;;
68192;SDS011;55012;47.562;18.414;2024-01-30T09:20:02;70.90;;;27.63;;
68192;SDS011;55012;47.562;18.414;2024-01-30T09:22:27;68.47;;;27.08;;
68192;SDS011;55012;47.562;18.414;2024-01-30T09:24:53;69.22;;;27.55;;
68192;SDS011;55012;47.562;18.414;2024-01-30T09:27:18;71.43;;;28.05;;
68192;SDS011;55012;47.562;18.414;2024-01-30T09:29:43;67.70;;;27.58;;
68192;SDS011;55012;47.562;18.414;2024-01-30T09:32:09;70.13;;;28.15;;
68192;SDS011;55012;47.562;18.414;2024-01-30T09:34:34;69.47;;;26.90;;
68192;SDS011;55012;47.562;18.414;2024-01-30T09:36:59;64.07;;;26.20;;
68192;SDS011;55012;47.562;18.414;2024-01-30T09:39:25;67.07;;;27.08;;
68192;SDS011;55012;47.562;18.414;2024-01-30T09:44:29;64.57;;;26.00;;
68192;SDS011;55012;47.562;18.414;2024-01-30T09:46:55;59.78;;;25.58;;
68192;SDS011;55012;47.562;18.414;2024-01-30T09:49:23;62.58;;;24.20;;
68192;SDS011;55012;47.562;18.414;2024-01-30T09:51:50;62.85;;;24.48;;
68192;SDS011;55012;47.562;18.414;2024-01-30T09:54:15;65.35;;;25.73;;
68192;SDS011;55012;47.562;18.414;2024-01-30T09:56:41;63.25;;;25.33;;
68192;SDS011;55012;47.562;18.414;2024-01-30T09:59:07;58.10;;;24.58;;
68192;SDS011;55012;47.562;18.414;2024-01-30T10:01:33;57.20;;;22.90;;
68192;SDS011;55012;47.562;18.414;2024-01-30T10:04:00;54.17;;;22.90;;
68192;SDS011;55012;47.562;18.414;2024-01-30T10:06:26;51.65;;;21.80;;
68192;SDS011;55012;47.562;18.414;2024-01-30T10:08:52;55.33;;;21.95;;
68192;SDS011;55012;47.562;18.414;2024-01-30T10:11:18;52.90;;;21.05;;
68192;SDS011;55012;47.562;18.414;2024-01-30T10:13:43;60.65;;;23.67;;
68192;SDS011;55012;47.562;18.414;2024-01-30T10:16:08;54.45;;;22.30;;
68192;SDS011;55012;47.562;18.414;2024-01-30T10:18:34;52.17;;;21.67;;
68192;SDS011;55012;47.562;18.414;2024-01-30T10:20:59;54.08;;;22.77;;
68192;SDS011;55012;47.562;18.414;2024-01-30T10:23:25;47.00;;;21.05;;
68192;SDS011;55012;47.562;18.414;2024-01-30T10:25:51;47.30;;;19.95;;
68192;SDS011;55012;47.562;18.414;2024-01-30T10:28:17;43.08;;;18.85;;
68192;SDS011;55012;47.562;18.414;2024-01-30T10:30:42;45.25;;;18.08;;
68192;SDS011;55012;47.562;18.414;2024-01-30T10:33:08;48.67;;;19.17;;
68192;SDS011;55012;47.562;18.414;2024-01-30T10:35:33;48.38;;;19.88;;
68192;SDS011;55012;47.562;18.414;2024-01-30T10:37:58;52.58;;;21.17;;
68192;SDS011;55012;47.562;18.414;2024-01-30T10:40:25;51.60;;;20.67;;
68192;SDS011;55012;47.562;18.414;2024-01-30T10:42:53;48.55;;;19.17;;
68192;SDS011;55012;47.562;18.414;2024-01-30T10:45:20;48.63;;;19.27;;
68192;SDS011;55012;47.562;18.414;2024-01-30T10:47:50;43.80;;;18.20;;
68192;SDS011;55012;47.562;18.414;2024-01-30T10:50:21;47.20;;;18.08;;
68192;SDS011;55012;47.562;18.414;2024-01-30T10:52:49;43.55;;;17.15;;
68192;SDS011;55012;47.562;18.414;2024-01-30T10:55:15;40.60;;;15.68;;
68192;SDS011;55012;47.562;18.414;2024-01-30T10:57:43;43.13;;;16.85;;
68192;SDS011;55012;47.562;18.414;2024-01-30T11:00:09;42.30;;;17.17;;
68192;SDS011;55012;47.562;18.414;2024-01-30T11:02:40;45.35;;;19.20;;
68192;SDS011;55012;47.562;18.414;2024-01-30T11:05:08;56.60;;;21.48;;
68192;SDS011;55012;47.562;18.414;2024-01-30T11:07:34;61.20;;;23.40;;
68192;SDS011;55012;47.562;18.414;2024-01-30T11:12:27;52.05;;;19.13;;
68192;SDS011;55012;47.562;18.414;2024-01-30T11:17:53;41.25;;;17.50;;
68192;SDS011;55012;47.562;18.414;2024-01-30T11:22:46;40.92;;;17.55;;
68192;SDS011;55012;47.562;18.414;2024-01-30T11:25:16;49.08;;;19.27;;
68192;SDS011;55012;47.562;18.414;2024-01-30T11:27:43;41.72;;;17.88;;
68192;SDS011;55012;47.562;18.414;2024-01-30T11:30:09;44.63;;;17.45;;
68192;SDS011;55012;47.562;18.414;2024-01-30T11:32:34;46.53;;;17.45;;
68192;SDS011;55012;47.562;18.414;2024-01-30T11:35:00;44.47;;;19.58;;
68192;SDS011;55012;47.562;18.414;2024-01-30T11:37:28;45.35;;;19.30;;
68192;SDS011;55012;47.562;18.414;2024-01-30T11:39:56;46.55;;;18.45;;
68192;SDS011;55012;47.562;18.414;2024-01-30T11:42:22;40.53;;;18.00;;
68192;SDS011;55012;47.562;18.414;2024-01-30T11:44:50;46.67;;;19.23;;
68192;SDS011;55012;47.562;18.414;2024-01-30T11:47:15;50.08;;;19.60;;
68192;SDS011;55012;47.562;18.414;2024-01-30T11:49:41;47.95;;;19.95;;
68192;SDS011;55012;47.562;18.414;2024-01-30T11:52:07;51.80;;;19.92;;
68192;SDS011;55012;47.562;18.414;2024-01-30T11:54:33;55.30;;;21.48;;
68192;SDS011;55012;47.562;18.414;2024-01-30T11:56:58;65.20;;;22.13;;
68192;SDS011;55012;47.562;18.414;2024-01-30T11:59:24;50.00;;;20.90;;
68192;SDS011;55012;47.562;18.414;2024-01-30T12:01:51;55.00;;;21.80;;
68192;SDS011;55012;47.562;18.414;2024-01-30T12:04:17;55.00;;;22.80;;
68192;SDS011;55012;47.562;18.414;2024-01-30T12:06:42;54.47;;;21.15;;
68192;SDS011;55012;47.562;18.414;2024-01-30T12:09:08;45.88;;;19.35;;
68192;SDS011;55012;47.562;18.414;2024-01-30T12:11:44;46.25;;;19.77;;
68192;SDS011;55012;47.562;18.414;2024-01-30T12:14:11;51.83;;;20.10;;
68192;SDS011;55012;47.562;18.414;2024-01-30T12:16:37;43.55;;;18.17;;
68192;SDS011;55012;47.562;18.414;2024-01-30T12:19:02;46.58;;;19.30;;
68192;SDS011;55012;47.562;18.414;2024-01-30T12:21:28;43.72;;;19.38;;
68192;SDS011;55012;47.562;18.414;2024-01-30T12:23:54;41.88;;;17.77;;
68192;SDS011;55012;47.562;18.414;2024-01-30T12:26:19;47.70;;;19.30;;
68192;SDS011;55012;47.562;18.414;2024-01-30T12:28:48;43.33;;;18.33;;
68192;SDS011;55012;47.562;18.414;2024-01-30T12:31:15;45.33;;;18.73;;
68192;SDS011;55012;47.562;18.414;2024-01-30T12:33:41;45.60;;;19.42;;
68192;SDS011;55012;47.562;18.414;2024-01-30T12:36:06;43.13;;;18.60;;
68192;SDS011;55012;47.562;18.414;2024-01-30T12:38:32;40.25;;;17.50;;
68192;SDS011;55012;47.562;18.414;2024-01-30T12:40:57;40.08;;;17.65;;
68192;SDS011;55012;47.562;18.414;2024-01-30T12:43:26;41.42;;;17.92;;
68192;SDS011;55012;47.562;18.414;2024-01-30T12:45:54;40.80;;;18.50;;
68192;SDS011;55012;47.562;18.414;2024-01-30T12:48:20;40.15;;;17.92;;
68192;SDS011;55012;47.562;18.414;2024-01-30T12:50:45;43.25;;;18.67;;
68192;SDS011;55012;47.562;18.414;2024-01-30T12:53:10;39.92;;;18.23;;
68192;SDS011;55012;47.562;18.414;2024-01-30T12:55:37;42.17;;;19.05;;
68192;SDS011;55012;47.562;18.414;2024-01-30T12:58:03;43.40;;;19.10;;
68192;SDS011;55012;47.562;18.414;2024-01-30T13:00:28;44.17;;;19.15;;
68192;SDS011;55012;47.562;18.414;2024-01-30T13:02:54;46.35;;;19.45;;
68192;SDS011;55012;47.562;18.414;2024-01-30T13:05:19;43.45;;;18.70;;
68192;SDS011;55012;47.562;18.414;2024-01-30T13:07:45;44.17;;;18.80;;
68192;SDS011;55012;47.562;18.414;2024-01-30T13:10:10;41.78;;;17.83;;
68192;SDS011;55012;47.562;18.414;2024-01-30T13:12:36;39.60;;;17.70;;
68192;SDS011;55012;47.562;18.414;2024-01-30T13:15:03;40.17;;;17.38;;
68192;SDS011;55012;47.562;18.414;2024-01-30T13:17:30;38.20;;;17.88;;
68192;SDS011;55012;47.562;18.414;2024-01-30T13:19:55;38.92;;;18.35;;
68192;SDS011;55012;47.562;18.414;2024-01-30T13:22:21;35.97;;;16.67;;
68192;SDS011;55012;47.562;18.414;2024-01-30T13:24:46;36.40;;;16.42;;
68192;SDS011;55012;47.562;18.414;2024-01-30T13:27:12;35.88;;;16.17;;
68192;SDS011;55012;47.562;18.414;2024-01-30T13:29:38;34.88;;;16.23;;
68192;SDS011;55012;47.562;18.414;2024-01-30T13:32:03;35.88;;;16.35;;
68192;SDS011;55012;47.562;18.414;2024-01-30T13:34:29;39.03;;;15.43;;
68192;SDS011;55012;47.562;18.414;2024-01-30T13:36:54;39.83;;;16.88;;
68192;SDS011;55012;47.562;18.414;2024-01-30T13:39:20;42.75;;;17.35;;
68192;SDS011;55012;47.562;18.414;2024-01-30T13:41:45;37.03;;;16.95;;
68192;SDS011;55012;47.562;18.414;2024-01-30T13:44:11;40.17;;;17.40;;
68192;SDS011;55012;47.562;18.414;2024-01-30T13:46:36;43.13;;;17.10;;
68192;SDS011;55012;47.562;18.414;2024-01-30T13:49:03;44.17;;;17.02;;
68192;SDS011;55012;47.562;18.414;2024-01-30T13:51:28;39.10;;;16.38;;
68192;SDS011;55012;47.562;18.414;2024-01-30T13:53:54;36.92;;;16.90;;
68192;SDS011;55012;47.562;18.414;2024-01-30T13:56:19;37.97;;;17.20;;
68192;SDS011;55012;47.562;18.414;2024-01-30T13:58:47;40.05;;;16.85;;
68192;SDS011;55012;47.562;18.414;2024-01-30T14:01:14;40.20;;;16.50;;
68192;SDS011;55012;47.562;18.414;2024-01-30T14:03:39;46.67;;;17.15;;
68192;SDS011;55012;47.562;18.414;2024-01-30T14:06:04;39.22;;;16.02;;
68192;SDS011;55012;47.562;18.414;2024-01-30T14:08:30;46.63;;;18.92;;
68192;SDS011;55012;47.562;18.414;2024-01-30T14:10:57;43.83;;;17.60;;
68192;SDS011;55012;47.562;18.414;2024-01-30T14:13:23;42.70;;;18.20;;